createdAt,value
2023-01-23T14:22:44.705Z,99050.91
2023-01-23T14:25:17.815Z,99055.69
2023-01-23T14:27:54.356Z,99047.09
2023-01-23T14:30:29.285Z,99061.19
2023-01-23T14:32:58.402Z,99060.06
2023-01-23T14:35:29.900Z,99066.41
2023-01-23T14:38:00.670Z,99068.00
2023-01-23T14:40:35.148Z,99060.34
2023-01-23T14:43:08.912Z,99057.72
2023-01-23T14:45:37.541Z,99060.97
2023-01-23T14:48:07.976Z,99068.41
2023-01-23T14:50:36.297Z,99063.28
2023-01-23T14:53:06.372Z,99052.16
2023-01-23T14:55:37.495Z,99048.84
2023-01-23T14:58:05.448Z,99047.97
2023-01-23T15:00:34.395Z,99067.09
2023-01-23T15:03:04.446Z,99058.16
2023-01-23T15:05:33.018Z,99064.69
2023-01-23T15:08:17.168Z,99065.91
2023-01-23T15:10:49.176Z,99055.56
2023-01-23T15:13:34.412Z,99064.41
2023-01-23T15:16:04.193Z,99071.75
2023-01-23T15:18:35.549Z,99067.81
2023-01-23T15:21:08.483Z,99068.69
2023-01-23T15:23:40.526Z,99079.63
2023-01-23T15:26:15.229Z,99084.16
2023-01-23T15:28:49.037Z,99078.69
2023-01-23T15:31:27.630Z,99074.34
2023-01-23T15:33:59.514Z,99066.78
2023-01-23T15:36:31.728Z,99076.34
2023-01-23T15:38:59.893Z,99077.56
2023-01-23T15:41:45.072Z,99072.53
2023-01-23T15:44:18.002Z,99078.06
2023-01-23T15:46:45.676Z,99094.66
2023-01-23T15:49:24.938Z,99085.28
2023-01-23T15:51:55.176Z,99086.66
2023-01-23T15:54:39.205Z,99096.91
2023-01-23T15:57:08.189Z,99090.91
2023-01-23T15:59:36.678Z,99090.06
2023-01-23T16:02:12.861Z,99101.19
2023-01-23T16:04:44.804Z,99112.63
2023-01-23T16:07:22.013Z,99115.50
2023-01-23T16:09:50.663Z,99112.44
2023-01-23T16:12:21.265Z,99118.78
2023-01-23T16:14:49.183Z,99114.44
2023-01-23T16:17:18.073Z,99120.06
2023-01-23T16:19:45.685Z,99128.41
2023-01-23T16:22:18.215Z,99124.59
2023-01-23T16:24:45.522Z,99138.81
2023-01-23T16:27:21.481Z,99129.78
2023-01-23T16:29:50.664Z,99155.66
2023-01-23T16:32:17.690Z,99144.75
2023-01-23T16:34:44.964Z,99165.91
2023-01-23T16:37:17.996Z,99174.31
2023-01-23T16:39:46.894Z,99170.41
2023-01-23T16:42:25.163Z,99175.31
2023-01-23T16:44:52.330Z,99178.59
2023-01-23T16:47:19.517Z,99167.91
2023-01-23T16:49:54.431Z,99161.94
2023-01-23T16:52:25.334Z,99159.56
2023-01-23T16:54:54.066Z,99161.22
2023-01-23T16:57:21.644Z,99170.75
2023-01-23T16:59:50.182Z,99174.31
2023-01-23T17:02:22.112Z,99177.16
2023-01-23T17:04:49.572Z,99196.94
2023-01-23T17:07:19.014Z,99181.78
2023-01-23T17:09:47.715Z,99199.63
2023-01-23T17:12:21.598Z,99195.72
2023-01-23T17:14:50.309Z,99192.59
2023-01-23T17:17:25.606Z,99201.66
2023-01-23T17:19:53.173Z,99198.50
2023-01-23T17:22:30.698Z,99198.50
2023-01-23T17:24:57.777Z,99196.94
2023-01-23T17:27:24.968Z,99210.47
2023-01-23T17:29:52.013Z,99205.75
2023-01-23T17:32:35.975Z,99197.81
2023-01-23T17:35:06.903Z,99207.22
2023-01-23T17:37:35.379Z,99211.19
2023-01-23T17:40:02.741Z,99204.06
2023-01-23T17:42:30.161Z,99214.03
2023-01-23T17:44:57.312Z,99211.25
2023-01-23T17:47:24.457Z,99223.25
2023-01-23T17:49:54.918Z,99213.81
2023-01-23T17:52:22.148Z,99201.06
2023-01-23T17:54:49.729Z,99209.75
2023-01-23T17:57:16.986Z,99220.00
2023-01-23T17:59:44.449Z,99238.34
2023-01-23T18:02:26.288Z,99249.59
2023-01-23T18:04:53.587Z,99246.50
2023-01-23T18:07:22.032Z,99251.25
2023-01-23T18:09:49.070Z,99248.88
2023-01-23T18:12:27.454Z,99243.31
2023-01-23T18:15:10.288Z,99244.88
2023-01-23T18:17:55.383Z,99251.19
2023-01-23T18:20:23.896Z,99257.53
2023-01-23T18:22:51.661Z,99261.53
2023-01-23T18:25:20.167Z,99263.88
2023-01-23T18:27:53.413Z,99269.72
2023-01-23T18:30:33.931Z,99261.34
2023-01-23T18:33:10.473Z,99266.47
2023-01-23T18:35:37.491Z,99262.19
2023-01-23T18:38:19.413Z,99257.50
2023-01-23T18:41:27.632Z,99261.47
2023-01-23T18:44:01.921Z,99259.91
2023-01-23T18:46:30.153Z,99266.16
2023-01-23T18:48:57.446Z,99267.31
2023-01-23T18:51:32.009Z,99255.72
2023-01-23T18:54:12.036Z,99252.53
2023-01-23T18:57:02.013Z,99261.97
2023-01-23T18:59:44.519Z,99253.66
2023-01-23T19:02:53.225Z,99252.44
2023-01-23T19:05:35.381Z,99241.34
2023-01-23T19:08:03.352Z,99249.34
2023-01-23T19:10:48.131Z,99243.78
2023-01-23T19:13:42.890Z,99239.84
2023-01-23T19:16:31.652Z,99238.22
2023-01-23T19:19:15.747Z,99257.28
2023-01-23T19:21:46.232Z,99259.75
2023-01-23T19:24:18.291Z,99254.28
2023-01-23T19:26:45.939Z,99252.69
2023-01-23T19:29:23.047Z,99246.31
2023-01-23T19:32:06.903Z,99259.00
2023-01-23T19:34:35.797Z,99256.16
2023-01-23T19:37:03.815Z,99244.59
2023-01-23T19:39:30.996Z,99261.25
2023-01-23T19:41:58.770Z,99253.72
2023-01-23T19:44:29.044Z,99251.03
2023-01-23T19:46:56.357Z,99253.78
2023-01-23T19:49:23.374Z,99252.94
2023-01-23T19:51:50.544Z,99251.75
2023-01-23T19:54:17.632Z,99249.34
2023-01-23T19:56:44.740Z,99256.50
2023-01-23T19:59:14.144Z,99266.78
2023-01-23T20:01:46.693Z,99271.16
2023-01-23T20:04:20.836Z,99268.31
2023-01-23T20:06:52.959Z,99277.81
2023-01-23T20:09:21.726Z,99272.25
2023-01-23T20:11:49.288Z,99281.72
2023-01-23T20:14:16.589Z,99276.25
2023-01-23T20:16:43.903Z,99273.88
2023-01-23T20:19:14.533Z,99275.44
2023-01-23T20:21:45.944Z,99281.47
2023-01-23T20:24:15.284Z,99289.41
2023-01-23T20:26:43.610Z,99284.97
2023-01-23T20:29:12.176Z,99286.22
2023-01-23T20:31:39.332Z,99293.38
2023-01-23T20:34:07.353Z,99288.31
2023-01-23T20:36:34.852Z,99283.59
2023-01-23T20:39:02.162Z,99286.78
2023-01-23T20:41:29.277Z,99287.94
2023-01-23T20:43:56.410Z,99281.19
2023-01-23T20:46:23.570Z,99277.25
2023-01-23T20:48:50.566Z,99276.47
2023-01-23T20:51:17.782Z,99292.41
2023-01-23T20:53:45.532Z,99275.75
2023-01-23T20:56:19.023Z,99282.88
2023-01-23T20:59:08.542Z,99277.25
2023-01-23T21:01:56.695Z,99279.25
2023-01-23T21:04:26.257Z,99277.34
2023-01-23T21:06:53.366Z,99276.13
2023-01-23T21:09:20.503Z,99278.13
2023-01-23T21:11:50.020Z,99278.06
2023-01-23T21:14:17.951Z,99276.41
2023-01-23T21:16:45.283Z,99280.41
2023-01-23T21:19:12.335Z,99281.63
2023-01-23T21:21:39.559Z,99280.81
2023-01-23T21:24:07.636Z,99278.94
2023-01-23T21:26:37.666Z,99277.09
2023-01-23T21:29:05.595Z,99279.88
2023-01-23T21:31:35.739Z,99280.59
2023-01-23T21:34:05.158Z,99292.88
2023-01-23T21:36:32.423Z,99279.44
2023-01-23T21:39:02.602Z,99291.34
2023-01-23T21:41:29.944Z,99283.78
2023-01-23T21:43:58.241Z,99287.34
2023-01-23T21:46:25.679Z,99281.06
2023-01-23T21:48:52.808Z,99291.34
2023-01-23T21:51:22.106Z,99286.94
2023-01-23T21:53:50.286Z,99292.47
2023-01-23T21:56:20.512Z,99300.41
2023-01-23T21:58:48.985Z,99300.53
2023-01-23T22:01:32.699Z,99298.56
2023-01-23T22:04:24.119Z,99300.53
2023-01-23T22:06:55.447Z,99301.69
2023-01-23T22:09:25.004Z,99300.47
2023-01-23T22:11:52.508Z,99301.59
2023-01-23T22:14:19.792Z,99303.16
2023-01-23T22:16:49.479Z,99296.03
2023-01-23T22:19:24.989Z,99298.81
2023-01-23T22:21:57.317Z,99292.06
2023-01-23T22:24:24.725Z,99299.59
2023-01-23T22:26:52.349Z,99294.03
2023-01-23T22:29:19.659Z,99297.22
2023-01-23T22:31:47.084Z,99291.75
2023-01-23T22:34:14.227Z,99295.78
2023-01-23T22:36:41.378Z,99300.59
2023-01-23T22:39:08.403Z,99292.63
2023-01-23T22:41:36.278Z,99299.75
2023-01-23T22:44:03.315Z,99298.91
2023-01-23T22:46:32.279Z,99303.69
2023-01-23T22:48:59.571Z,99294.22
2023-01-23T22:51:28.287Z,99284.69
2023-01-23T22:53:56.655Z,99280.00
2023-01-23T22:56:25.313Z,99282.38
2023-01-23T22:58:54.541Z,99277.69
2023-01-23T23:01:27.377Z,99283.97
2023-01-23T23:03:57.305Z,99286.25
2023-01-23T23:06:25.518Z,99270.44
2023-01-23T23:08:52.833Z,99280.72
2023-01-23T23:11:22.868Z,99268.84
2023-01-23T23:13:51.030Z,99284.94
2023-01-23T23:16:22.176Z,99281.78
2023-01-23T23:18:52.245Z,99283.72
2023-01-23T23:21:23.448Z,99279.72
2023-01-23T23:23:51.373Z,99275.75
2023-01-23T23:26:18.756Z,99277.69
2023-01-23T23:28:45.891Z,99272.50
2023-01-23T23:31:12.916Z,99276.47
2023-01-23T23:33:39.928Z,99276.97
2023-01-23T23:36:07.898Z,99280.59
2023-01-23T23:38:35.440Z,99288.91
2023-01-23T23:41:07.956Z,99275.81
2023-01-23T23:43:35.454Z,99274.19
2023-01-23T23:46:05.136Z,99276.16
2023-01-23T23:48:33.593Z,99278.91
2023-01-23T23:51:02.736Z,99275.75
2023-01-23T23:53:30.908Z,99280.25
2023-01-23T23:55:57.973Z,99271.53
2023-01-23T23:58:25.203Z,99284.63
